Cadillac, Michigan
Current Conditions -  °F | °C
As of 9:14 AM on Thursday 23 Oct 2014 (Local Time) from KCAD Reporting Station
Moderate Fog Moderate Fog  
Wind Chill: 33°   Ceiling: 100
Heat Index: 33°   Visibility: 0mi
Dew Point: 33°   Wind: 0mph
Humidity: 100%   Direction: NA
Pressure: 30.21"   Gusts: NA
Location:  44.26°N, 85.4°W
Report Text: KCAD 231314Z AUTO 00000KT M1/4SM FG OVC001 00/00 A3021 RMK AO2 T00040004
Loading
Personal Weather Stations






























Interactive Weather Map New forecast layout! Learn more

10-Day Weather Forecast

Advertisements
Track Severe Weather on mobile